createdAt,value
2018-02-05T00:01:36.200Z,2.40
2018-02-05T00:04:03.698Z,2.40
2018-02-05T00:06:31.208Z,2.30
2018-02-05T00:08:58.695Z,2.40
2018-02-05T00:11:26.998Z,2.40
2018-02-05T00:13:54.493Z,2.40
2018-02-05T00:16:21.994Z,2.40
2018-02-05T00:18:50.582Z,2.40
2018-02-05T00:21:18.061Z,2.40
2018-02-05T00:23:45.560Z,2.30
2018-02-05T00:26:13.038Z,2.40
2018-02-05T00:28:41.286Z,2.40
2018-02-05T00:31:08.772Z,2.40
2018-02-05T00:33:37.039Z,2.40
2018-02-05T00:36:05.286Z,2.40
2018-02-05T00:38:32.842Z,2.30
2018-02-05T00:41:00.334Z,2.40
2018-02-05T00:43:29.222Z,2.40
2018-02-05T00:45:57.490Z,2.30
2018-02-05T00:48:25.762Z,2.40
2018-02-05T00:50:54.042Z,2.30
2018-02-05T00:53:22.324Z,2.30
2018-02-05T00:55:51.200Z,2.30
2018-02-05T00:58:21.976Z,2.30
2018-02-05T01:00:49.520Z,2.30
2018-02-05T01:03:17.757Z,2.40
2018-02-05T01:05:46.030Z,2.30
2018-02-05T01:08:14.400Z,2.30
2018-02-05T01:10:41.881Z,2.30
2018-02-05T01:13:10.461Z,2.30
2018-02-05T01:15:38.714Z,2.30
2018-02-05T01:18:06.186Z,2.30
2018-02-05T01:20:33.720Z,2.30
2018-02-05T01:23:01.186Z,2.30
2018-02-05T01:25:28.685Z,2.30
2018-02-05T01:27:56.947Z,2.30
2018-02-05T01:30:25.954Z,2.30
2018-02-05T01:32:54.235Z,2.40
2018-02-05T01:35:22.497Z,2.40
2018-02-05T01:37:50.738Z,2.40
2018-02-05T01:40:18.227Z,2.40
2018-02-05T01:42:45.722Z,2.40
2018-02-05T01:45:13.206Z,2.40
2018-02-05T01:47:40.706Z,2.40
2018-02-05T01:50:09.394Z,2.40
2018-02-05T01:52:37.673Z,2.40
2018-02-05T01:55:05.904Z,2.40
2018-02-05T01:57:34.000Z,2.40
2018-02-05T02:00:02.269Z,2.40
2018-02-05T02:02:30.705Z,2.40
2018-02-05T02:04:58.201Z,2.40
2018-02-05T02:07:26.672Z,2.40
2018-02-05T02:09:54.154Z,2.30
2018-02-05T02:12:21.631Z,2.40
2018-02-05T02:14:49.890Z,2.40
2018-02-05T02:17:17.442Z,2.40
2018-02-05T02:19:46.425Z,2.30
2018-02-05T02:22:14.736Z,2.40
2018-02-05T02:24:43.738Z,2.40
2018-02-05T02:27:11.217Z,2.40
2018-02-05T02:29:38.871Z,2.40
2018-02-05T02:32:06.382Z,2.40
2018-02-05T02:34:34.690Z,2.30
2018-02-05T02:37:02.200Z,2.40
2018-02-05T02:39:29.692Z,2.40
2018-02-05T02:41:57.938Z,2.30
2018-02-05T02:44:25.431Z,2.30
2018-02-05T02:46:53.681Z,2.30
2018-02-05T02:49:21.959Z,2.40
2018-02-05T02:51:50.243Z,2.40
2018-02-05T02:54:18.558Z,2.30
2018-02-05T02:56:46.079Z,2.30
2018-02-05T02:59:13.539Z,2.30
2018-02-05T03:01:41.203Z,2.30
2018-02-05T03:04:09.463Z,2.30
2018-02-05T03:06:38.727Z,2.30
2018-02-05T03:09:06.342Z,2.30
2018-02-05T03:11:33.795Z,2.30
2018-02-05T03:14:02.050Z,2.30
2018-02-05T03:16:30.314Z,2.30
2018-02-05T03:18:57.800Z,2.30
2018-02-05T03:21:26.061Z,2.30
2018-02-05T03:23:54.351Z,2.30
2018-02-05T03:26:22.573Z,2.30
2018-02-05T03:28:50.108Z,2.30
2018-02-05T03:31:17.595Z,2.30
2018-02-05T03:33:45.098Z,2.30
2018-02-05T03:36:13.477Z,2.30
2018-02-05T03:38:41.714Z,2.30
2018-02-05T03:41:09.190Z,2.20
2018-02-05T03:43:36.693Z,2.30
2018-02-05T03:46:04.189Z,2.20
2018-02-05T03:48:31.722Z,2.20
2018-02-05T03:50:59.232Z,2.20
2018-02-05T03:53:28.223Z,2.20
2018-02-05T03:55:56.505Z,2.20
2018-02-05T03:58:24.734Z,2.10
2018-02-05T04:00:52.230Z,2.10
2018-02-05T04:03:20.490Z,2.10
2018-02-05T04:05:48.777Z,2.10
2018-02-05T04:08:16.346Z,2.10
2018-02-05T04:10:44.774Z,2.10
2018-02-05T04:13:13.058Z,2.10
2018-02-05T04:15:40.555Z,2.10
2018-02-05T04:18:08.033Z,1.90
2018-02-05T04:20:35.537Z,1.90
2018-02-05T04:23:03.021Z,1.90
2018-02-05T04:25:30.491Z,1.90
2018-02-05T04:27:58.746Z,1.80
2018-02-05T04:30:26.237Z,1.70
2018-02-05T04:32:53.730Z,1.70
2018-02-05T04:35:21.241Z,1.70
2018-02-05T04:37:48.764Z,1.70
2018-02-05T04:40:16.261Z,1.80
2018-02-05T04:42:44.633Z,1.80
2018-02-05T04:45:12.936Z,1.80
2018-02-05T04:47:40.463Z,1.80
2018-02-05T04:50:08.746Z,1.70
2018-02-05T04:52:36.995Z,1.70
2018-02-05T04:55:05.271Z,1.70
2018-02-05T04:57:34.391Z,1.60
2018-02-05T05:00:02.651Z,1.70
2018-02-05T05:02:30.198Z,1.70
2018-02-05T05:04:57.682Z,1.70
2018-02-05T05:07:25.928Z,1.80
2018-02-05T05:09:53.463Z,1.80
2018-02-05T05:12:20.969Z,1.80
2018-02-05T05:14:49.258Z,1.90
2018-02-05T05:17:16.881Z,1.90
2018-02-05T05:19:44.366Z,1.90
2018-02-05T05:22:12.670Z,1.90
2018-02-05T05:24:40.237Z,1.90
2018-02-05T05:27:08.458Z,1.90
2018-02-05T05:29:35.947Z,1.90
2018-02-05T05:32:03.781Z,1.90
2018-02-05T05:34:31.229Z,1.90
2018-02-05T05:37:00.358Z,2.00
2018-02-05T05:39:27.854Z,2.00
2018-02-05T05:41:55.370Z,2.00
2018-02-05T05:44:23.627Z,2.00
2018-02-05T05:46:51.855Z,2.00
2018-02-05T05:49:19.316Z,2.00
2018-02-05T05:51:46.806Z,2.00
2018-02-05T05:54:14.366Z,2.00
2018-02-05T05:56:41.834Z,2.00
2018-02-05T05:59:11.080Z,2.00
2018-02-05T06:01:38.543Z,2.00
2018-02-05T06:04:06.236Z,2.00
2018-02-05T06:06:33.713Z,2.00
2018-02-05T06:09:01.954Z,2.00
2018-02-05T06:11:29.536Z,2.00
2018-02-05T06:13:57.002Z,2.00
2018-02-05T06:16:25.266Z,2.00
2018-02-05T06:18:52.766Z,2.00
2018-02-05T06:21:20.223Z,2.00
2018-02-05T06:23:47.684Z,2.00
2018-02-05T06:26:15.154Z,2.00
2018-02-05T06:28:42.627Z,2.00
2018-02-05T06:31:10.098Z,2.00
2018-02-05T06:33:38.359Z,2.00
2018-02-05T06:36:05.838Z,1.90
2018-02-05T06:38:34.834Z,1.80
2018-02-05T06:41:03.818Z,1.80
2018-02-05T06:43:32.286Z,1.80
2018-02-05T06:45:59.758Z,1.80
2018-02-05T06:48:27.226Z,1.80
2018-02-05T06:51:07.370Z,1.80
2018-02-05T06:53:46.617Z,1.80
2018-02-05T06:56:23.795Z,1.60
2018-02-05T06:58:51.258Z,1.60
2018-02-05T07:01:19.514Z,1.50
2018-02-05T07:03:47.003Z,1.40
2018-02-05T07:06:14.487Z,1.40
2018-02-05T07:08:41.956Z,1.50
2018-02-05T07:11:09.430Z,1.40
2018-02-05T07:13:37.010Z,1.40
2018-02-05T07:16:04.475Z,1.40
2018-02-05T07:18:32.730Z,1.30
2018-02-05T07:21:00.198Z,1.30
2018-02-05T07:23:27.671Z,1.30
2018-02-05T07:25:55.919Z,1.20
2018-02-05T07:28:23.397Z,1.20
2018-02-05T07:30:52.298Z,1.10
2018-02-05T07:33:20.650Z,1.10
2018-02-05T07:35:48.109Z,1.10
2018-02-05T07:38:15.662Z,1.00
2018-02-05T07:40:43.931Z,1.00
2018-02-05T07:43:11.418Z,0.90
2018-02-05T07:45:39.646Z,1.00
2018-02-05T07:48:07.138Z,1.00
2018-02-05T07:50:34.609Z,1.10
2018-02-05T07:53:03.568Z,1.30
2018-02-05T07:55:31.142Z,1.30
2018-02-05T07:57:58.624Z,1.40
2018-02-05T08:00:26.867Z,1.50
2018-02-05T08:02:54.438Z,1.50
2018-02-05T08:05:22.714Z,1.60
2018-02-05T08:07:50.274Z,1.60
2018-02-05T08:10:17.734Z,1.60
2018-02-05T08:12:46.085Z,1.60
2018-02-05T08:15:13.538Z,1.60
2018-02-05T08:17:41.008Z,1.60
2018-02-05T08:20:08.507Z,1.60
2018-02-05T08:22:35.970Z,1.60
2018-02-05T08:25:03.443Z,1.60
2018-02-05T08:27:30.931Z,1.70
2018-02-05T08:29:58.399Z,1.70
2018-02-05T08:32:25.969Z,1.70
2018-02-05T08:34:53.455Z,1.80
2018-02-05T08:37:20.934Z,1.90
2018-02-05T08:39:48.414Z,1.90
2018-02-05T08:42:15.918Z,2.00
2018-02-05T08:44:43.385Z,2.00
2018-02-05T08:47:10.890Z,2.00
2018-02-05T08:49:38.358Z,2.00
2018-02-05T08:52:05.915Z,2.00
2018-02-05T08:54:33.490Z,2.10
2018-02-05T08:57:01.046Z,2.10
2018-02-05T08:59:28.513Z,2.10
2018-02-05T09:01:56.756Z,2.10
2018-02-05T09:04:24.230Z,2.10
2018-02-05T09:06:51.693Z,2.20
2018-02-05T09:09:19.941Z,2.30
2018-02-05T09:11:47.407Z,2.30
2018-02-05T09:14:15.006Z,2.40
2018-02-05T09:16:43.230Z,2.40
2018-02-05T09:19:10.690Z,2.40
2018-02-05T09:21:38.757Z,2.40
2018-02-05T09:24:06.230Z,2.40
2018-02-05T09:26:33.727Z,2.40
2018-02-05T09:29:01.183Z,2.50
2018-02-05T09:31:28.674Z,2.50
2018-02-05T09:33:56.198Z,2.60
2018-02-05T09:36:23.623Z,2.60
2018-02-05T09:38:51.891Z,2.70
2018-02-05T09:41:19.359Z,2.70
2018-02-05T09:43:47.606Z,2.80
2018-02-05T09:46:15.153Z,2.80
2018-02-05T09:48:42.606Z,2.90
2018-02-05T09:51:10.093Z,2.90
2018-02-05T09:53:37.552Z,2.80
2018-02-05T09:56:05.775Z,2.80
2018-02-05T09:58:33.256Z,2.80
2018-02-05T10:01:00.772Z,2.80
2018-02-05T10:03:28.990Z,2.90
2018-02-05T10:05:56.458Z,2.90
2018-02-05T10:08:23.935Z,3.00
2018-02-05T10:10:51.411Z,3.10
2018-02-05T10:13:19.645Z,3.10
2018-02-05T10:15:48.822Z,3.10
2018-02-05T10:18:16.379Z,3.10
2018-02-05T10:20:43.843Z,3.20
2018-02-05T10:23:11.304Z,3.30
2018-02-05T10:25:38.794Z,3.20
2018-02-05T10:28:06.349Z,3.40
2018-02-05T10:30:34.623Z,3.50
2018-02-05T10:33:03.616Z,3.60
2018-02-05T10:35:31.070Z,3.60
2018-02-05T10:37:58.631Z,3.60
2018-02-05T10:40:27.630Z,3.50
2018-02-05T10:42:56.606Z,3.40
2018-02-05T10:45:24.067Z,3.40
2018-02-05T10:47:51.556Z,3.20
2018-02-05T10:50:19.802Z,3.10
2018-02-05T10:52:47.394Z,3.10
2018-02-05T10:55:15.639Z,3.20
2018-02-05T10:57:44.613Z,3.20
2018-02-05T11:00:12.099Z,3.20
2018-02-05T11:02:39.602Z,3.50
2018-02-05T11:05:07.063Z,3.70
2018-02-05T11:07:34.527Z,3.90
2018-02-05T11:10:02.004Z,4.00
2018-02-05T11:12:29.482Z,4.20
2018-02-05T11:14:56.947Z,4.30
2018-02-05T11:17:25.190Z,4.20
2018-02-05T11:19:52.786Z,4.20
2018-02-05T11:22:21.014Z,4.10
2018-02-05T11:24:48.633Z,4.10
2018-02-05T11:34:02.678Z,4.00
2018-02-05T11:36:30.250Z,3.90
2018-02-05T11:38:57.813Z,4.10
2018-02-05T11:41:25.376Z,4.20
2018-02-05T11:43:52.831Z,4.50
2018-02-05T11:46:20.295Z,4.60
2018-02-05T11:48:49.231Z,4.70
2018-02-05T11:51:16.693Z,4.70
2018-02-05T11:53:44.194Z,4.80
2018-02-05T11:56:11.750Z,4.90
2018-02-05T11:58:39.222Z,4.60
2018-02-05T12:01:07.454Z,4.70
2018-02-05T12:03:35.034Z,4.70
2018-02-05T12:06:02.528Z,4.80
2018-02-05T12:08:31.751Z,4.70
2018-02-05T12:10:59.210Z,4.70
2018-02-05T12:13:26.671Z,4.60
2018-02-05T12:15:54.159Z,4.70
2018-02-05T12:18:23.130Z,4.80
2018-02-05T12:20:51.126Z,4.80
2018-02-05T12:23:20.417Z,5.10
2018-02-05T12:25:49.418Z,5.10
2018-02-05T12:28:16.870Z,5.10
2018-02-05T12:30:44.358Z,5.20
2018-02-05T12:33:13.087Z,5.40
2018-02-05T12:35:40.555Z,5.40
2018-02-05T12:38:08.054Z,5.30
2018-02-05T12:40:36.309Z,5.10
2018-02-05T12:43:03.767Z,5.10
2018-02-05T12:45:31.321Z,5.10
2018-02-05T12:47:58.786Z,5.00
2018-02-05T12:50:26.246Z,5.00
2018-02-05T12:52:54.490Z,4.60
2018-02-05T12:55:21.951Z,4.60
2018-02-05T12:57:49.411Z,4.40
2018-02-05T13:00:17.803Z,4.50
2018-02-05T13:02:45.254Z,4.60
2018-02-05T13:05:31.127Z,4.60
2018-02-05T13:07:58.567Z,4.60
2018-02-05T13:10:26.038Z,4.70
2018-02-05T13:12:54.340Z,4.70
2018-02-05T13:15:21.786Z,4.80
2018-02-05T13:17:49.265Z,4.80
2018-02-05T13:20:17.507Z,4.90
2018-02-05T13:22:45.087Z,4.90
2018-02-05T13:25:13.524Z,4.80
2018-02-05T13:27:40.983Z,4.80
2018-02-05T13:30:08.448Z,4.80
2018-02-05T13:32:35.923Z,4.80
2018-02-05T13:35:03.495Z,4.70
2018-02-05T13:37:32.479Z,4.60
2018-02-05T13:40:01.458Z,4.60
2018-02-05T13:42:29.342Z,4.60
2018-02-05T13:44:57.582Z,4.90
2018-02-05T13:47:25.042Z,4.90
2018-02-05T13:49:52.508Z,5.00
2018-02-05T13:52:19.996Z,5.10
2018-02-05T13:54:47.451Z,5.10
2018-02-05T13:57:15.009Z,5.20
2018-02-05T13:59:42.465Z,5.00
2018-02-05T14:02:09.926Z,4.90
2018-02-05T14:04:37.411Z,4.70
2018-02-05T14:07:04.883Z,4.60
2018-02-05T14:09:32.395Z,4.40
2018-02-05T14:11:59.943Z,4.40
2018-02-05T14:14:27.401Z,4.30
2018-02-05T14:16:56.380Z,4.40
2018-02-05T14:19:23.849Z,4.40
2018-02-05T14:21:52.098Z,4.50
2018-02-05T14:24:19.573Z,4.50
2018-02-05T14:26:47.038Z,4.50
2018-02-05T14:29:14.519Z,4.50
2018-02-05T14:31:43.363Z,4.40
2018-02-05T14:34:10.838Z,4.40
2018-02-05T14:36:39.803Z,4.40
2018-02-05T14:39:07.291Z,4.30
2018-02-05T14:41:36.295Z,4.30
2018-02-05T14:44:03.755Z,4.30
2018-02-05T14:46:31.987Z,4.30
2018-02-05T14:48:59.494Z,4.30
2018-02-05T14:51:27.731Z,4.20
2018-02-05T14:53:55.197Z,4.20
2018-02-05T14:56:22.778Z,4.20
2018-02-05T14:58:51.010Z,4.10
2018-02-05T15:01:18.499Z,4.10
2018-02-05T15:03:46.733Z,3.90
2018-02-05T15:06:14.191Z,3.90
2018-02-05T15:08:41.667Z,3.90
2018-02-05T15:11:09.238Z,3.80
2018-02-05T15:13:37.477Z,3.80
2018-02-05T15:16:04.970Z,3.70
2018-02-05T15:18:32.450Z,3.80
2018-02-05T15:21:00.674Z,3.70
2018-02-05T15:23:28.930Z,3.80
2018-02-05T15:25:56.398Z,3.70
2018-02-05T15:28:23.897Z,3.70
2018-02-05T15:30:52.157Z,3.70
2018-02-05T15:33:19.639Z,3.70
2018-02-05T15:35:49.242Z,3.60
2018-02-05T15:38:16.798Z,3.60
2018-02-05T15:40:45.070Z,3.50
2018-02-05T15:43:12.535Z,3.50
2018-02-05T15:45:40.102Z,3.50
2018-02-05T15:48:08.326Z,3.50
2018-02-05T15:50:35.802Z,3.50
2018-02-05T15:53:03.282Z,3.40
2018-02-05T15:55:30.747Z,3.40
2018-02-05T15:57:58.982Z,3.30
2018-02-05T16:00:27.455Z,3.30
2018-02-05T16:02:54.913Z,3.30
2018-02-05T16:05:22.492Z,3.20
2018-02-05T16:07:50.679Z,3.20
2018-02-05T16:10:18.137Z,3.20
2018-02-05T16:12:47.126Z,3.20
2018-02-05T16:15:16.116Z,3.10
2018-02-05T16:17:43.580Z,3.10
2018-02-05T16:20:12.660Z,3.00
2018-02-05T16:22:40.134Z,3.00
2018-02-05T16:25:08.361Z,2.80
2018-02-05T16:27:35.861Z,2.80
2018-02-05T16:30:04.087Z,2.60
2018-02-05T16:32:31.590Z,2.60
2018-02-05T16:34:59.092Z,2.50
2018-02-05T16:37:26.564Z,2.40
2018-02-05T16:39:54.962Z,2.30
2018-02-05T16:42:22.439Z,2.20
2018-02-05T16:44:50.891Z,2.10
2018-02-05T16:47:18.365Z,2.10
2018-02-05T16:49:45.937Z,2.00
2018-02-05T16:52:13.403Z,1.90
2018-02-05T16:54:41.690Z,1.70
2018-02-05T16:57:09.934Z,1.70
2018-02-05T16:59:37.435Z,1.80
2018-02-05T17:02:04.961Z,1.70
2018-02-05T17:04:32.466Z,1.70
2018-02-05T17:07:00.939Z,1.60
2018-02-05T17:09:28.475Z,1.60
2018-02-05T17:11:56.698Z,1.50
2018-02-05T17:14:24.194Z,1.50
2018-02-05T17:16:51.687Z,1.50
2018-02-05T17:19:19.167Z,1.40
2018-02-05T17:21:46.635Z,1.40
2018-02-05T17:24:14.123Z,1.40
2018-02-05T17:26:43.122Z,1.30
2018-02-05T17:29:11.359Z,1.30
2018-02-05T17:31:38.831Z,1.30
2018-02-05T17:34:06.401Z,1.20
2018-02-05T17:36:34.476Z,1.10
2018-02-05T17:39:01.951Z,1.10
2018-02-05T17:41:30.210Z,1.00
2018-02-05T17:43:57.773Z,0.90
2018-02-05T17:46:25.251Z,0.90
2018-02-05T17:48:52.734Z,1.00
2018-02-05T17:51:20.195Z,0.90
2018-02-05T17:53:47.704Z,0.90
2018-02-05T17:56:15.973Z,0.80
2018-02-05T17:58:43.439Z,0.80
2018-02-05T18:01:10.920Z,0.80
2018-02-05T18:03:38.403Z,0.80
2018-02-05T18:06:05.942Z,0.80
2018-02-05T18:08:33.425Z,0.80
2018-02-05T18:11:00.934Z,0.80
2018-02-05T18:13:29.791Z,0.70
2018-02-05T18:15:57.314Z,0.70
2018-02-05T18:18:24.783Z,0.60
2018-02-05T18:20:52.307Z,0.60
2018-02-05T18:23:19.903Z,0.50
2018-02-05T18:25:47.502Z,0.50
2018-02-05T18:28:15.236Z,0.50
2018-02-05T18:30:43.551Z,0.50
2018-02-05T18:33:12.703Z,0.50
2018-02-05T18:35:40.211Z,0.40
2018-02-05T18:38:08.491Z,0.40
2018-02-05T18:40:36.770Z,0.40
2018-02-05T18:43:04.271Z,0.40
2018-02-05T18:45:31.812Z,0.40
2018-02-05T18:47:59.278Z,0.30
2018-02-05T18:50:26.763Z,0.30
2018-02-05T18:52:56.966Z,0.20
2018-02-05T18:55:24.446Z,0.20
2018-02-05T18:57:51.962Z,0.20
2018-02-05T19:00:31.378Z,0.20
2018-02-05T19:02:58.869Z,0.20
2018-02-05T19:05:26.362Z,0.10
2018-02-05T19:07:53.899Z,0.10
2018-02-05T19:10:21.491Z,0.10
2018-02-05T19:12:48.968Z,0.10
2018-02-05T19:15:16.450Z,0.10
2018-02-05T19:17:43.983Z,0.10
2018-02-05T19:20:11.494Z,0.10
2018-02-05T19:22:38.974Z,0.00
2018-02-05T19:25:07.245Z,0.00
2018-02-05T19:27:35.406Z,0.00
2018-02-05T19:30:02.885Z,0.00
2018-02-05T19:32:31.178Z,-0.10
2018-02-05T19:34:58.703Z,-0.10
2018-02-05T19:37:26.315Z,-0.10
2018-02-05T19:39:53.814Z,-0.10
2018-02-05T19:42:21.295Z,-0.10
2018-02-05T19:44:49.589Z,-0.20
2018-02-05T19:47:17.620Z,-0.20
2018-02-05T19:49:45.102Z,-0.20
2018-02-05T19:52:13.371Z,-0.30
2018-02-05T19:54:40.875Z,-0.30
2018-02-05T19:57:08.381Z,-0.30
2018-02-05T19:59:36.750Z,-0.30
2018-02-05T20:02:04.218Z,-0.30
2018-02-05T20:04:33.314Z,-0.40
2018-02-05T20:07:01.603Z,-0.40
2018-02-05T20:09:30.214Z,-0.40
2018-02-05T20:11:57.710Z,-0.40
2018-02-05T20:14:25.274Z,-0.40
2018-02-05T20:16:54.258Z,-0.40
2018-02-05T20:19:21.752Z,-0.50
2018-02-05T20:21:50.058Z,-0.50
2018-02-05T20:24:17.590Z,-0.50
2018-02-05T20:26:45.850Z,-0.60
2018-02-05T20:29:14.102Z,-0.60
2018-02-05T20:31:41.625Z,-0.60
2018-02-05T20:34:09.207Z,-0.60
2018-02-05T20:36:36.846Z,-0.60
2018-02-05T20:39:04.346Z,-0.70
2018-02-05T20:41:32.322Z,-0.70
2018-02-05T20:43:59.891Z,-0.70
2018-02-05T20:46:28.176Z,-0.70
2018-02-05T20:48:56.439Z,-0.80
2018-02-05T20:51:25.290Z,-0.80
2018-02-05T20:53:52.843Z,-0.90
2018-02-05T20:56:21.229Z,-0.90
2018-02-05T20:58:49.591Z,-0.90
2018-02-05T21:01:17.081Z,-0.90
2018-02-05T21:03:44.647Z,-0.90
2018-02-05T21:06:12.175Z,-1.00
2018-02-05T21:08:40.278Z,-1.00
2018-02-05T21:11:08.559Z,-1.00
2018-02-05T21:13:36.034Z,-1.00
2018-02-05T21:16:04.282Z,-1.00
2018-02-05T21:18:31.781Z,-1.00
2018-02-05T21:20:59.278Z,-1.00
2018-02-05T21:23:27.607Z,-1.10
2018-02-05T21:25:55.848Z,-1.10
2018-02-05T21:28:23.343Z,-1.10
2018-02-05T21:30:52.434Z,-1.20
2018-02-05T21:33:25.237Z,-1.10
2018-02-05T21:35:53.675Z,-1.10
2018-02-05T21:38:21.570Z,-1.20
2018-02-05T21:40:51.951Z,-1.20
2018-02-05T21:43:21.447Z,-1.20
2018-02-05T21:45:49.497Z,-1.20
2018-02-05T21:48:17.319Z,-1.20
2018-02-05T21:50:45.681Z,-1.20
2018-02-05T21:53:13.913Z,-1.20
2018-02-05T21:55:41.427Z,-1.20
2018-02-05T21:58:09.695Z,-1.30
2018-02-05T22:00:37.173Z,-1.30
2018-02-05T22:03:04.735Z,-1.30
2018-02-05T22:05:33.003Z,-1.30
2018-02-05T22:08:01.325Z,-1.30
2018-02-05T22:10:28.853Z,-1.30
2018-02-05T22:12:56.341Z,-1.40
2018-02-05T22:15:23.895Z,-1.40
2018-02-05T22:17:51.416Z,-1.40
2018-02-05T22:20:18.900Z,-1.40
2018-02-05T22:22:46.430Z,-1.40
2018-02-05T22:25:13.904Z,-1.50
2018-02-05T22:27:42.334Z,-1.50
2018-02-05T22:30:09.828Z,-1.50
2018-02-05T22:32:37.412Z,-1.60
2018-02-05T22:35:05.617Z,-1.60
2018-02-05T22:37:33.104Z,-1.60
2018-02-05T22:40:01.385Z,-1.60
2018-02-05T22:42:29.625Z,-1.60
2018-02-05T22:44:57.709Z,-1.60
2018-02-05T22:47:25.205Z,-1.60
2018-02-05T22:49:52.715Z,-1.60
2018-02-05T22:52:20.218Z,-1.70
2018-02-05T22:54:47.710Z,-1.70
2018-02-05T22:57:15.221Z,-1.70
2018-02-05T22:59:42.765Z,-1.70
2018-02-05T23:02:11.024Z,-1.80
2018-02-05T23:04:39.572Z,-1.80
2018-02-05T23:07:08.081Z,-1.80
2018-02-05T23:09:36.346Z,-1.90
2018-02-05T23:12:03.865Z,-1.90
2018-02-05T23:14:31.367Z,-1.90
2018-02-05T23:16:58.937Z,-1.80
2018-02-05T23:19:26.441Z,-1.90
2018-02-05T23:21:53.956Z,-1.90
2018-02-05T23:24:22.334Z,-1.90
2018-02-05T23:26:49.843Z,-1.90
2018-02-05T23:29:17.429Z,-1.90
2018-02-05T23:31:44.949Z,-1.90
2018-02-05T23:34:13.192Z,-1.90
2018-02-05T23:36:41.398Z,-2.00
2018-02-05T23:39:08.899Z,-2.00
2018-02-05T23:41:36.440Z,-2.00
2018-02-05T23:44:03.939Z,-2.00
2018-02-05T23:46:31.866Z,-2.10
2018-02-05T23:48:59.404Z,-2.10
2018-02-05T23:51:26.929Z,-2.00
2018-02-05T23:53:54.402Z,-2.00
2018-02-05T23:56:22.720Z,-2.10
2018-02-05T23:58:50.226Z,-2.10
